createdAt,value
2022-12-07T00:01:11.200Z,2.79
2022-12-07T00:02:12.774Z,2.78
2022-12-07T00:03:14.361Z,2.78
2022-12-07T00:04:18.320Z,2.83
2022-12-07T00:05:19.826Z,2.86
2022-12-07T00:07:08.510Z,2.87
2022-12-07T00:08:10.060Z,2.89
2022-12-07T00:09:15.037Z,2.87
2022-12-07T00:10:16.659Z,2.90
2022-12-07T00:11:20.819Z,2.92
2022-12-07T00:12:22.353Z,2.94
2022-12-07T00:13:23.872Z,3.00
2022-12-07T00:14:25.430Z,2.95
2022-12-07T00:15:27.073Z,2.96
2022-12-07T00:16:31.660Z,2.93
2022-12-07T00:17:33.199Z,2.91
2022-12-07T00:18:34.821Z,2.91
2022-12-07T00:19:36.338Z,2.90
2022-12-07T00:20:37.933Z,2.86
2022-12-07T00:21:39.829Z,2.89
2022-12-07T00:22:41.344Z,2.90
2022-12-07T00:23:44.946Z,2.93
2022-12-07T00:24:46.467Z,2.93
2022-12-07T00:25:48.004Z,2.95
2022-12-07T00:26:49.479Z,2.95
2022-12-07T00:27:50.988Z,2.97
2022-12-07T00:29:00.636Z,2.94
2022-12-07T00:30:02.461Z,2.97
2022-12-07T00:31:10.478Z,2.99
2022-12-07T00:32:12.057Z,2.98
2022-12-07T00:33:13.680Z,2.96
2022-12-07T00:34:20.522Z,2.95
2022-12-07T00:35:22.084Z,2.93
2022-12-07T00:36:26.908Z,2.97
2022-12-07T00:37:28.967Z,3.01
2022-12-07T00:38:32.145Z,3.04
2022-12-07T00:39:33.648Z,3.06
2022-12-07T00:40:35.147Z,3.06
2022-12-07T00:41:36.711Z,3.07
2022-12-07T00:42:38.237Z,3.09
2022-12-07T00:43:40.924Z,3.14
2022-12-07T00:44:42.444Z,3.17
2022-12-07T00:45:44.014Z,3.20
2022-12-07T00:46:45.533Z,3.21
2022-12-07T00:47:47.017Z,3.22
2022-12-07T00:48:49.595Z,3.25
2022-12-07T00:49:51.082Z,3.27
2022-12-07T00:50:53.068Z,3.30
2022-12-07T00:51:54.563Z,3.32
2022-12-07T00:52:56.046Z,3.34
2022-12-07T00:53:57.617Z,3.37
2022-12-07T00:54:59.154Z,3.38
2022-12-07T00:56:06.293Z,3.42
2022-12-07T00:57:07.859Z,3.44
2022-12-07T00:58:09.436Z,3.41
2022-12-07T00:59:13.807Z,3.41
2022-12-07T01:00:15.684Z,3.41
2022-12-07T01:01:17.280Z,3.41
2022-12-07T01:02:18.830Z,3.42
2022-12-07T01:03:20.382Z,3.44
2022-12-07T01:04:21.915Z,3.45
2022-12-07T01:05:23.532Z,3.46
2022-12-07T01:06:26.069Z,3.48
2022-12-07T01:07:27.564Z,3.46
2022-12-07T01:08:29.476Z,3.46
2022-12-07T01:09:31.038Z,3.43
2022-12-07T01:10:32.616Z,3.42
2022-12-07T01:11:34.277Z,3.40
2022-12-07T01:12:35.838Z,3.33
2022-12-07T01:13:37.314Z,3.29
2022-12-07T01:14:38.882Z,3.27
2022-12-07T01:15:44.647Z,3.24
2022-12-07T01:16:46.294Z,3.16
2022-12-07T01:17:47.931Z,3.13
2022-12-07T01:18:52.325Z,3.12
2022-12-07T01:19:53.889Z,3.08
2022-12-07T01:21:03.590Z,3.07
2022-12-07T01:22:05.090Z,3.07
2022-12-07T01:23:06.672Z,3.01
2022-12-07T01:24:11.232Z,3.00
2022-12-07T01:25:13.085Z,2.98
2022-12-07T01:26:20.254Z,2.99
2022-12-07T01:27:22.338Z,2.97
2022-12-07T01:28:24.326Z,3.00
2022-12-07T01:29:25.855Z,3.00
2022-12-07T01:30:27.408Z,2.98
2022-12-07T01:31:29.428Z,2.97
2022-12-07T01:32:31.029Z,2.98
2022-12-07T01:33:35.670Z,2.92
2022-12-07T01:34:37.261Z,2.93
2022-12-07T01:35:38.752Z,2.93
2022-12-07T01:36:40.299Z,2.98
2022-12-07T01:37:41.837Z,2.97
2022-12-07T01:38:44.479Z,2.97
2022-12-07T01:39:49.632Z,2.98
2022-12-07T01:40:56.356Z,2.97
2022-12-07T01:41:57.842Z,2.98
2022-12-07T01:42:59.349Z,2.95
2022-12-07T01:44:17.942Z,3.00
2022-12-07T01:45:19.407Z,3.01
2022-12-07T01:46:20.808Z,3.01
2022-12-07T01:47:22.388Z,3.03
2022-12-07T01:48:29.859Z,2.99
2022-12-07T01:49:39.566Z,3.03
2022-12-07T01:50:42.460Z,3.05
2022-12-07T01:51:46.657Z,3.07
2022-12-07T01:52:51.891Z,3.11
2022-12-07T01:53:53.744Z,3.14
2022-12-07T01:55:00.327Z,3.17
2022-12-07T01:56:01.993Z,3.21
2022-12-07T01:57:05.714Z,3.26
2022-12-07T01:58:07.701Z,3.29
2022-12-07T01:59:09.479Z,3.32
2022-12-07T02:00:12.132Z,3.34
2022-12-07T02:01:16.353Z,3.32
2022-12-07T02:02:27.241Z,3.33
2022-12-07T02:03:36.047Z,3.35
2022-12-07T02:04:37.766Z,3.36
2022-12-07T02:05:42.212Z,3.38
2022-12-07T02:06:45.503Z,3.40
2022-12-07T02:07:48.863Z,3.42
2022-12-07T02:08:50.439Z,3.45
2022-12-07T02:09:52.013Z,3.46
2022-12-07T02:10:53.508Z,3.49
2022-12-07T02:12:00.311Z,3.50
2022-12-07T02:13:18.983Z,3.51
2022-12-07T02:14:20.561Z,3.52
2022-12-07T02:15:27.253Z,3.48
2022-12-07T02:16:49.067Z,3.41
2022-12-07T02:18:22.944Z,3.42
2022-12-07T02:20:09.598Z,3.43
2022-12-07T02:21:31.898Z,3.44
2022-12-07T02:23:11.150Z,3.42
2022-12-07T02:24:37.489Z,3.42
2022-12-07T02:26:00.219Z,3.44
2022-12-07T02:27:24.419Z,3.43
2022-12-07T02:29:01.048Z,3.42
2022-12-07T02:30:05.909Z,3.42
2022-12-07T02:31:15.060Z,3.41
2022-12-07T02:32:19.583Z,3.37
2022-12-07T02:33:32.096Z,3.37
2022-12-07T02:34:49.676Z,3.33
2022-12-07T02:36:06.623Z,3.35
2022-12-07T02:37:36.663Z,3.36
2022-12-07T02:38:51.851Z,3.34
2022-12-07T02:40:05.202Z,3.27
2022-12-07T02:41:32.450Z,3.29
2022-12-07T02:42:42.431Z,3.32
2022-12-07T02:43:56.475Z,3.35
2022-12-07T02:44:59.622Z,3.32
2022-12-07T02:46:09.230Z,3.25
2022-12-07T02:47:14.541Z,3.21
2022-12-07T02:48:18.979Z,3.22
2022-12-07T02:49:23.845Z,3.28
2022-12-07T02:50:25.452Z,3.27
2022-12-07T02:51:31.577Z,3.31
2022-12-07T02:52:33.140Z,3.35
2022-12-07T02:53:38.962Z,3.39
2022-12-07T02:54:40.508Z,3.42
2022-12-07T02:55:43.062Z,3.41
2022-12-07T02:56:44.486Z,3.41
2022-12-07T02:58:06.109Z,3.42
2022-12-07T02:59:22.692Z,3.41
2022-12-07T03:00:24.362Z,3.41
2022-12-07T03:01:48.109Z,3.34
2022-12-07T03:03:27.076Z,3.35
2022-12-07T03:05:11.564Z,3.32
2022-12-07T03:06:29.033Z,3.26
2022-12-07T03:07:55.153Z,3.14
2022-12-07T03:09:16.217Z,3.16
2022-12-07T03:10:17.668Z,3.22
2022-12-07T03:11:22.237Z,3.27
2022-12-07T03:12:33.022Z,3.28
2022-12-07T03:13:51.621Z,3.28
2022-12-07T03:15:01.399Z,3.28
2022-12-07T03:16:21.050Z,3.28
2022-12-07T03:17:28.131Z,3.28
2022-12-07T03:18:32.882Z,3.29
2022-12-07T03:19:36.058Z,3.30
2022-12-07T03:20:40.179Z,3.31
2022-12-07T03:21:45.680Z,3.31
2022-12-07T03:22:48.100Z,3.30
2022-12-07T03:23:54.895Z,3.28
2022-12-07T03:25:01.874Z,3.30
2022-12-07T03:26:06.143Z,3.32
2022-12-07T03:27:14.309Z,3.32
2022-12-07T03:28:21.870Z,3.35
2022-12-07T03:29:34.847Z,3.35
2022-12-07T03:30:59.869Z,3.36
2022-12-07T03:32:15.157Z,3.36
2022-12-07T03:33:27.040Z,3.37
2022-12-07T03:34:31.609Z,3.37
2022-12-07T03:35:40.466Z,3.40
2022-12-07T03:36:49.926Z,3.39
2022-12-07T03:38:00.437Z,3.37
2022-12-07T03:39:09.414Z,3.36
2022-12-07T03:40:45.789Z,3.29
2022-12-07T03:41:47.567Z,3.18
2022-12-07T03:42:49.961Z,3.08
2022-12-07T03:43:52.664Z,3.08
2022-12-07T03:44:54.489Z,3.03
2022-12-07T03:46:27.126Z,3.04
2022-12-07T03:47:43.956Z,3.09
2022-12-07T03:49:05.704Z,3.08
2022-12-07T03:50:32.727Z,3.03
2022-12-07T03:51:52.822Z,3.05
2022-12-07T03:52:59.821Z,3.08
2022-12-07T03:54:20.370Z,3.05
2022-12-07T03:55:34.033Z,3.06
2022-12-07T03:56:37.499Z,3.07
2022-12-07T03:57:40.923Z,3.05
2022-12-07T03:58:42.926Z,3.04
2022-12-07T03:59:44.824Z,3.01
2022-12-07T04:00:47.644Z,2.95
2022-12-07T04:01:55.766Z,2.94
2022-12-07T04:02:57.559Z,2.96
2022-12-07T04:03:59.129Z,2.95
2022-12-07T04:05:00.722Z,2.91
2022-12-07T04:06:02.692Z,2.97
2022-12-07T04:07:04.196Z,2.96
2022-12-07T04:08:05.954Z,2.97
2022-12-07T04:09:07.484Z,3.03
2022-12-07T04:10:09.537Z,3.08
2022-12-07T04:11:11.224Z,3.13
2022-12-07T04:12:12.723Z,3.16
2022-12-07T04:13:14.249Z,3.22
2022-12-07T04:14:15.866Z,3.24
2022-12-07T04:15:17.464Z,3.27
2022-12-07T04:16:19.046Z,3.30
2022-12-07T04:17:20.607Z,3.33
2022-12-07T04:18:22.171Z,3.34
2022-12-07T04:19:25.930Z,3.35
2022-12-07T04:20:27.452Z,3.35
2022-12-07T04:21:28.970Z,3.38
2022-12-07T04:22:30.640Z,3.38
2022-12-07T04:23:32.128Z,3.41
2022-12-07T04:24:34.381Z,3.39
2022-12-07T04:25:35.907Z,3.34
2022-12-07T04:26:37.588Z,3.30
2022-12-07T04:27:39.288Z,3.26
2022-12-07T04:28:40.805Z,3.22
2022-12-07T04:29:42.368Z,3.21
2022-12-07T04:30:43.909Z,3.22
2022-12-07T04:31:46.330Z,3.25
2022-12-07T04:32:47.978Z,3.23
2022-12-07T04:33:49.586Z,3.25
2022-12-07T04:34:55.420Z,3.28
2022-12-07T04:35:57.432Z,3.28
2022-12-07T04:36:59.047Z,3.27
2022-12-07T04:38:00.614Z,3.27
2022-12-07T04:39:02.213Z,3.29
2022-12-07T04:40:04.386Z,3.31
2022-12-07T04:41:07.770Z,3.32
2022-12-07T04:42:09.253Z,3.33
2022-12-07T04:43:10.826Z,3.34
2022-12-07T04:44:14.075Z,3.34
2022-12-07T04:45:15.704Z,3.35
2022-12-07T04:46:17.244Z,3.35
2022-12-07T04:47:18.794Z,3.36
2022-12-07T04:48:20.899Z,3.37
2022-12-07T04:49:22.615Z,3.38
2022-12-07T04:50:24.107Z,3.41
2022-12-07T04:51:28.872Z,3.42
2022-12-07T04:52:30.361Z,3.43
2022-12-07T04:53:32.047Z,3.45
2022-12-07T04:54:33.589Z,3.46
2022-12-07T04:55:35.098Z,3.46
2022-12-07T04:56:37.141Z,3.46
2022-12-07T04:57:38.628Z,3.48
2022-12-07T04:58:40.161Z,3.49
2022-12-07T04:59:45.581Z,3.44
2022-12-07T05:00:47.673Z,3.34
2022-12-07T05:01:49.335Z,3.25
2022-12-07T05:02:50.948Z,3.14
2022-12-07T05:03:52.752Z,3.06
2022-12-07T05:04:54.316Z,3.05
2022-12-07T05:05:55.818Z,3.00
2022-12-07T05:06:57.339Z,2.97
2022-12-07T05:07:59.060Z,2.92
2022-12-07T05:09:01.482Z,2.88
2022-12-07T05:10:03.530Z,2.90
2022-12-07T05:11:06.608Z,2.94
2022-12-07T05:12:08.126Z,2.94
2022-12-07T05:13:09.664Z,2.99
2022-12-07T05:14:17.517Z,3.04
2022-12-07T05:15:19.084Z,3.08
2022-12-07T05:16:20.601Z,3.11
2022-12-07T05:17:22.133Z,3.16
2022-12-07T05:18:23.754Z,3.16
2022-12-07T05:19:25.289Z,3.20
2022-12-07T05:20:26.809Z,3.21
2022-12-07T05:21:28.300Z,3.19
2022-12-07T05:22:29.847Z,3.12
2022-12-07T05:23:31.333Z,3.07
2022-12-07T05:24:32.893Z,3.06
2022-12-07T05:25:34.683Z,3.10
2022-12-07T05:26:37.088Z,3.13
2022-12-07T05:27:38.588Z,3.15
2022-12-07T05:28:40.095Z,3.19
2022-12-07T05:29:41.627Z,3.22
2022-12-07T05:30:43.157Z,3.25
2022-12-07T05:31:45.726Z,3.23
2022-12-07T05:32:47.372Z,3.21
2022-12-07T05:33:49.011Z,3.19
2022-12-07T05:34:50.562Z,3.14
2022-12-07T05:35:52.067Z,3.15
2022-12-07T05:36:53.618Z,3.18
2022-12-07T05:37:56.236Z,3.22
2022-12-07T05:38:57.749Z,3.24
2022-12-07T05:39:59.368Z,3.27
2022-12-07T05:41:02.699Z,3.27
2022-12-07T05:42:04.436Z,3.28
2022-12-07T05:43:05.947Z,3.29
2022-12-07T05:44:07.463Z,3.30
2022-12-07T05:45:10.554Z,3.32
2022-12-07T05:46:12.143Z,3.34
2022-12-07T05:47:15.421Z,3.34
2022-12-07T05:48:16.922Z,3.34
2022-12-07T05:49:18.666Z,3.33
2022-12-07T05:50:20.262Z,3.32
2022-12-07T05:51:35.253Z,3.25
2022-12-07T05:52:36.747Z,3.18
2022-12-07T05:53:38.261Z,3.11
2022-12-07T05:54:39.797Z,3.09
2022-12-07T05:55:41.468Z,3.11
2022-12-07T05:56:43.002Z,3.11
2022-12-07T05:57:44.537Z,3.08
2022-12-07T05:58:46.111Z,3.04
2022-12-07T05:59:47.685Z,3.06
2022-12-07T06:00:51.321Z,3.09
2022-12-07T06:01:58.807Z,3.09
2022-12-07T06:03:00.512Z,3.11
2022-12-07T06:04:02.175Z,3.13
2022-12-07T06:05:03.849Z,3.09
2022-12-07T06:06:05.600Z,3.07
2022-12-07T06:07:07.747Z,3.01
2022-12-07T06:08:09.336Z,2.99
2022-12-07T06:09:11.306Z,2.95
2022-12-07T06:10:12.812Z,2.97
2022-12-07T06:11:14.373Z,2.97
2022-12-07T06:12:16.015Z,2.98
2022-12-07T06:13:17.530Z,3.03
2022-12-07T06:14:20.489Z,3.06
2022-12-07T06:15:22.082Z,3.06
2022-12-07T06:16:23.781Z,3.08
2022-12-07T06:17:25.483Z,3.11
2022-12-07T06:18:27.004Z,3.12
2022-12-07T06:19:28.611Z,3.12
2022-12-07T06:20:30.156Z,3.06
2022-12-07T06:21:31.820Z,3.06
2022-12-07T06:22:33.398Z,3.05
2022-12-07T06:23:34.922Z,3.02
2022-12-07T06:24:36.590Z,3.00
2022-12-07T06:25:38.149Z,2.89
2022-12-07T06:26:40.340Z,2.77
2022-12-07T06:27:41.883Z,2.72
2022-12-07T06:28:43.399Z,2.72
2022-12-07T06:29:44.925Z,2.64
2022-12-07T06:30:46.590Z,2.63
2022-12-07T06:31:48.159Z,2.59
2022-12-07T06:32:49.774Z,2.56
2022-12-07T06:33:51.319Z,2.54
2022-12-07T06:34:52.858Z,2.52
2022-12-07T06:35:54.762Z,2.48
2022-12-07T06:36:56.553Z,2.51
2022-12-07T06:37:58.053Z,2.49
2022-12-07T06:38:59.596Z,2.45
2022-12-07T06:40:01.415Z,2.48
2022-12-07T06:41:03.139Z,2.50
2022-12-07T06:42:04.815Z,2.48
2022-12-07T06:43:06.331Z,2.43
2022-12-07T06:44:08.600Z,2.48
2022-12-07T06:45:10.597Z,2.48
2022-12-07T06:46:12.180Z,2.49
2022-12-07T06:47:39.646Z,2.54
2022-12-07T06:48:35.286Z,2.56
2022-12-07T06:49:36.785Z,2.50
2022-12-07T06:50:38.376Z,2.52
2022-12-07T06:51:40.225Z,2.47
2022-12-07T06:52:41.768Z,2.42
2022-12-07T06:53:43.310Z,2.34
2022-12-07T06:54:44.809Z,2.38
2022-12-07T06:55:46.320Z,2.34
2022-12-07T06:56:47.885Z,2.37
2022-12-07T06:57:49.427Z,2.37
2022-12-07T06:58:51.025Z,2.37
2022-12-07T06:59:52.525Z,2.41
2022-12-07T07:00:54.132Z,2.42
2022-12-07T07:01:55.774Z,2.49
2022-12-07T07:02:57.520Z,2.55
2022-12-07T07:03:59.350Z,2.57
2022-12-07T07:05:00.857Z,2.56
2022-12-07T07:06:02.381Z,2.58
2022-12-07T07:07:03.919Z,2.62
2022-12-07T07:08:21.955Z,2.64
2022-12-07T07:09:24.264Z,2.65
2022-12-07T07:10:25.811Z,2.61
2022-12-07T07:11:27.401Z,2.59
2022-12-07T07:12:28.928Z,2.59
2022-12-07T07:13:30.511Z,2.56
2022-12-07T07:14:32.026Z,2.57
2022-12-07T07:15:34.756Z,2.56
2022-12-07T07:16:36.336Z,2.58
2022-12-07T07:17:37.992Z,2.57
2022-12-07T07:18:39.688Z,2.61
2022-12-07T07:19:41.267Z,2.60
2022-12-07T07:20:42.819Z,2.61
2022-12-07T07:21:44.365Z,2.62
2022-12-07T07:22:45.945Z,2.67
2022-12-07T07:23:47.449Z,2.65
2022-12-07T07:24:48.991Z,2.70
2022-12-07T07:25:50.691Z,2.72
2022-12-07T07:26:52.236Z,2.77
2022-12-07T07:27:53.826Z,2.82
2022-12-07T07:28:55.365Z,2.79
2022-12-07T07:29:56.908Z,2.78
2022-12-07T07:30:58.557Z,2.73
2022-12-07T07:32:06.444Z,2.70
2022-12-07T07:33:08.641Z,2.63
2022-12-07T07:34:10.247Z,2.66
2022-12-07T07:35:11.784Z,2.70
2022-12-07T07:36:13.388Z,2.69
2022-12-07T07:37:20.257Z,2.71
2022-12-07T07:38:23.360Z,2.73
2022-12-07T07:39:24.879Z,2.77
2022-12-07T07:40:27.405Z,2.80
2022-12-07T07:41:28.989Z,2.77
2022-12-07T07:42:30.634Z,2.75
2022-12-07T07:43:33.285Z,2.74
2022-12-07T07:44:35.682Z,2.81
2022-12-07T07:45:37.373Z,2.83
2022-12-07T07:46:39.236Z,2.84
2022-12-07T07:47:40.849Z,2.88
2022-12-07T07:48:42.498Z,2.89
2022-12-07T07:49:47.948Z,2.91
2022-12-07T07:50:49.944Z,2.88
2022-12-07T07:51:51.520Z,2.89
2022-12-07T07:52:53.048Z,2.84
2022-12-07T07:53:54.960Z,2.87
2022-12-07T07:54:56.511Z,2.91
2022-12-07T07:55:58.013Z,2.90
2022-12-07T07:56:59.571Z,2.84
2022-12-07T07:58:01.893Z,2.83
2022-12-07T07:59:03.489Z,2.88
2022-12-07T08:00:08.061Z,2.94
2022-12-07T08:01:13.946Z,2.98
2022-12-07T08:02:20.261Z,2.99
2022-12-07T08:03:21.901Z,2.94
2022-12-07T08:04:23.486Z,2.85
2022-12-07T08:05:25.096Z,2.81
2022-12-07T08:06:31.858Z,2.85
2022-12-07T08:07:33.970Z,2.92
2022-12-07T08:08:35.537Z,2.95
2022-12-07T08:09:37.097Z,2.94
2022-12-07T08:10:38.640Z,2.95
2022-12-07T08:11:40.143Z,3.00
2022-12-07T08:12:43.261Z,2.99
2022-12-07T08:13:47.060Z,3.05
2022-12-07T08:14:48.725Z,3.01
2022-12-07T08:15:50.282Z,3.01
2022-12-07T08:16:51.994Z,3.01
2022-12-07T08:17:53.534Z,3.03
2022-12-07T08:18:55.063Z,3.05
2022-12-07T08:19:56.577Z,3.09
2022-12-07T08:21:01.546Z,3.04
2022-12-07T08:22:03.246Z,3.04
2022-12-07T08:23:05.679Z,3.08
2022-12-07T08:24:07.364Z,3.09
2022-12-07T08:25:09.044Z,3.04
2022-12-07T08:26:12.744Z,3.04
2022-12-07T08:27:14.289Z,3.03
2022-12-07T08:28:16.640Z,2.93
2022-12-07T08:29:18.992Z,2.90
2022-12-07T08:30:21.189Z,2.85
2022-12-07T08:31:22.908Z,2.80
2022-12-07T08:32:24.516Z,2.84
2022-12-07T08:33:26.022Z,2.81
2022-12-07T08:34:27.570Z,2.86
2022-12-07T08:35:29.131Z,2.91
2022-12-07T08:36:30.621Z,2.91
2022-12-07T08:37:33.154Z,2.93
2022-12-07T08:38:39.436Z,2.89
2022-12-07T08:39:40.944Z,2.91
2022-12-07T08:40:42.423Z,2.90
2022-12-07T08:41:43.963Z,2.89
2022-12-07T08:42:54.621Z,2.88
2022-12-07T08:43:56.165Z,2.90
2022-12-07T08:44:58.211Z,2.92
2022-12-07T08:46:22.805Z,2.96
2022-12-07T08:47:25.828Z,2.93
2022-12-07T08:48:27.421Z,2.94
2022-12-07T08:49:34.490Z,2.95
2022-12-07T08:50:38.267Z,2.92
2022-12-07T08:51:40.991Z,2.92
2022-12-07T08:52:43.414Z,2.95
2022-12-07T08:53:45.479Z,2.98
2022-12-07T08:54:47.733Z,3.01
2022-12-07T08:55:50.274Z,2.99
2022-12-07T08:56:58.456Z,3.01
2022-12-07T08:58:01.543Z,3.01
2022-12-07T08:59:04.348Z,3.04
2022-12-07T09:00:06.712Z,3.01
2022-12-07T09:01:08.367Z,2.99
2022-12-07T09:02:10.043Z,3.04
2022-12-07T09:03:11.640Z,3.02
2022-12-07T09:04:13.207Z,3.04
2022-12-07T09:05:16.759Z,3.06
2022-12-07T09:06:19.001Z,3.07
2022-12-07T09:07:20.928Z,3.06
2022-12-07T09:08:27.425Z,3.06
2022-12-07T09:09:28.989Z,3.07
2022-12-07T09:10:30.746Z,3.09
2022-12-07T09:11:32.250Z,3.07
2022-12-07T09:12:33.755Z,3.08
2022-12-07T09:13:35.328Z,3.14
2022-12-07T09:14:36.931Z,3.17
2022-12-07T09:15:38.574Z,3.16
2022-12-07T09:16:40.706Z,3.18
2022-12-07T09:17:42.293Z,3.18
2022-12-07T09:18:43.798Z,3.23
2022-12-07T09:19:45.341Z,3.30
2022-12-07T09:20:46.945Z,3.31
2022-12-07T09:21:48.491Z,3.28
2022-12-07T09:22:50.187Z,3.32
2022-12-07T09:23:51.715Z,3.33
2022-12-07T09:24:53.214Z,3.33
2022-12-07T09:25:54.800Z,3.30
2022-12-07T09:26:56.321Z,3.30
2022-12-07T09:27:59.422Z,3.32
2022-12-07T09:29:00.939Z,3.33
2022-12-07T09:30:03.336Z,3.33
2022-12-07T09:32:27.175Z,3.24
2022-12-07T09:33:28.774Z,3.28
2022-12-07T09:34:32.565Z,3.29
2022-12-07T09:35:34.177Z,3.32
2022-12-07T09:36:35.723Z,3.25
2022-12-07T09:37:37.235Z,3.23
2022-12-07T09:38:38.809Z,3.23
2022-12-07T09:39:44.757Z,3.24
2022-12-07T09:40:51.154Z,3.27
2022-12-07T09:41:52.756Z,3.31
2022-12-07T09:42:56.469Z,3.30
2022-12-07T09:44:15.506Z,3.36
2022-12-07T09:45:21.928Z,3.37
2022-12-07T09:46:23.583Z,3.43
2022-12-07T09:47:25.555Z,3.41
2022-12-07T09:48:32.014Z,3.42
2022-12-07T09:49:33.606Z,3.45
2022-12-07T09:50:35.164Z,3.44
2022-12-07T09:51:36.680Z,3.45
2022-12-07T09:52:39.263Z,3.44
2022-12-07T09:53:42.699Z,3.43
2022-12-07T09:54:48.744Z,3.39
2022-12-07T09:55:50.258Z,3.35
2022-12-07T09:56:51.801Z,3.30
2022-12-07T09:57:53.951Z,3.31
2022-12-07T09:59:01.319Z,3.30
2022-12-07T10:00:07.824Z,3.28
2022-12-07T10:01:09.263Z,3.27
2022-12-07T10:02:28.804Z,3.19
2022-12-07T10:03:30.366Z,3.29
2022-12-07T10:04:32.089Z,3.26
2022-12-07T10:05:38.334Z,3.28
2022-12-07T10:06:40.074Z,3.23
2022-12-07T10:07:41.677Z,3.24
2022-12-07T10:08:43.305Z,3.25
2022-12-07T10:09:44.851Z,3.26
2022-12-07T10:10:50.964Z,3.28
2022-12-07T10:12:10.162Z,3.25
2022-12-07T10:13:19.547Z,3.25
2022-12-07T10:14:26.347Z,3.29
2022-12-07T10:15:50.572Z,3.36
2022-12-07T10:16:52.233Z,3.39
2022-12-07T10:17:53.809Z,3.39
2022-12-07T10:18:55.811Z,3.39
2022-12-07T10:20:15.605Z,3.34
2022-12-07T10:21:19.702Z,3.34
2022-12-07T10:22:21.236Z,3.35
2022-12-07T10:23:22.739Z,3.38
2022-12-07T10:24:24.262Z,3.41
2022-12-07T10:25:34.724Z,3.40
2022-12-07T10:26:49.256Z,3.41
2022-12-07T10:28:09.169Z,3.42
2022-12-07T10:29:16.712Z,3.42
2022-12-07T10:30:18.317Z,3.44
2022-12-07T10:31:23.249Z,3.42
2022-12-07T10:32:35.073Z,3.40
2022-12-07T10:33:49.179Z,3.43
2022-12-07T10:34:52.477Z,3.36
2022-12-07T10:35:54.202Z,3.35
2022-12-07T10:37:08.468Z,3.35
2022-12-07T10:38:17.711Z,3.41
2022-12-07T10:39:24.052Z,3.41
2022-12-07T10:40:33.136Z,3.44
2022-12-07T10:41:34.718Z,3.46
2022-12-07T10:42:36.341Z,3.45
2022-12-07T10:43:38.049Z,3.51
2022-12-07T10:44:39.644Z,3.49
2022-12-07T10:46:11.414Z,3.46
2022-12-07T10:47:48.457Z,3.48
2022-12-07T10:49:43.993Z,3.46
2022-12-07T10:51:39.028Z,3.53
2022-12-07T10:53:08.559Z,3.58
2022-12-07T10:54:16.712Z,3.71
2022-12-07T10:55:36.318Z,3.83
2022-12-07T10:57:07.066Z,3.94
2022-12-07T10:58:20.359Z,3.98
2022-12-07T10:59:39.852Z,4.10
2022-12-07T11:00:59.755Z,4.19
2022-12-07T11:02:31.924Z,4.36
2022-12-07T11:03:42.131Z,4.49
2022-12-07T11:05:11.527Z,4.48
2022-12-07T11:06:50.803Z,4.53
2022-12-07T11:08:05.871Z,4.64
2022-12-07T11:10:07.513Z,4.68
2022-12-07T11:11:24.748Z,4.71
2022-12-07T11:12:53.626Z,4.73
2022-12-07T11:13:57.863Z,4.75
2022-12-07T11:15:18.452Z,4.69
2022-12-07T11:16:34.993Z,4.75
2022-12-07T11:17:49.801Z,4.73
2022-12-07T11:19:07.324Z,4.78
2022-12-07T11:20:24.117Z,4.73
2022-12-07T11:21:43.559Z,4.58
2022-12-07T11:22:56.591Z,4.63
2022-12-07T11:24:10.004Z,4.63
2022-12-07T11:25:34.797Z,4.72
2022-12-07T11:27:05.915Z,4.77
2022-12-07T11:28:28.780Z,4.61
2022-12-07T11:30:03.889Z,4.75
2022-12-07T11:31:30.262Z,4.69
2022-12-07T11:32:48.054Z,4.71
2022-12-07T11:34:06.724Z,4.68
2022-12-07T11:36:03.024Z,4.66
2022-12-07T11:37:11.215Z,4.74
2022-12-07T11:38:18.204Z,4.77
2022-12-07T11:39:42.681Z,4.74
2022-12-07T11:40:59.944Z,4.74
2022-12-07T11:42:23.537Z,4.72
2022-12-07T11:43:35.065Z,4.64
2022-12-07T11:44:53.227Z,4.66
2022-12-07T11:46:12.040Z,4.55
2022-12-07T11:47:52.947Z,4.46
2022-12-07T11:48:57.478Z,4.41
2022-12-07T11:50:21.035Z,4.41
2022-12-07T11:51:23.805Z,4.45
2022-12-07T11:53:07.213Z,4.46
2022-12-07T11:54:36.731Z,4.46
2022-12-07T11:56:14.215Z,4.32
2022-12-07T11:57:31.728Z,4.26
2022-12-07T11:58:42.987Z,4.29
2022-12-07T11:59:53.340Z,4.30
2022-12-07T12:01:14.724Z,4.24
2022-12-07T12:02:33.515Z,4.34
2022-12-07T12:03:41.332Z,4.36
2022-12-07T12:04:56.022Z,4.38
2022-12-07T12:05:57.885Z,4.33
2022-12-07T12:09:57.596Z,4.41
2022-12-07T12:11:11.232Z,4.44
2022-12-07T12:14:52.812Z,4.49
2022-12-07T12:16:20.518Z,4.45
2022-12-07T12:17:49.781Z,4.38
2022-12-07T12:19:20.693Z,4.32
2022-12-07T12:20:47.596Z,4.35
2022-12-07T12:21:58.368Z,4.30
2022-12-07T12:23:21.026Z,4.20
2022-12-07T12:24:33.119Z,4.15
2022-12-07T12:25:42.313Z,4.07
2022-12-07T12:26:52.898Z,4.06
2022-12-07T12:27:57.710Z,4.06
2022-12-07T12:29:05.503Z,4.03
2022-12-07T12:30:25.191Z,3.95
2022-12-07T12:31:41.657Z,4.04
2022-12-07T12:32:45.788Z,4.02
2022-12-07T12:33:50.990Z,4.03
2022-12-07T12:34:55.198Z,4.01
2022-12-07T12:36:15.552Z,3.98
2022-12-07T12:37:35.073Z,3.97
2022-12-07T12:39:10.816Z,4.02
2022-12-07T12:40:15.379Z,4.02
2022-12-07T12:41:38.862Z,4.06
2022-12-07T12:42:57.395Z,4.00
2022-12-07T12:43:58.995Z,4.01
2022-12-07T12:45:25.047Z,4.10
2022-12-07T12:46:32.650Z,4.08
2022-12-07T12:47:43.409Z,4.05
2022-12-07T12:48:44.971Z,4.05
2022-12-07T12:50:12.418Z,4.16
2022-12-07T12:51:35.676Z,4.17
2022-12-07T12:52:55.012Z,4.11
2022-12-07T12:54:05.995Z,4.14
2022-12-07T12:55:10.341Z,4.15
2022-12-07T13:08:30.603Z,4.08
2022-12-07T13:09:36.214Z,4.06
2022-12-07T13:10:41.218Z,3.99
2022-12-07T13:11:46.563Z,4.01
2022-12-07T13:13:05.356Z,4.01
2022-12-07T13:14:41.017Z,4.02
2022-12-07T13:15:51.541Z,3.94
2022-12-07T13:16:53.163Z,3.90
2022-12-07T13:17:54.628Z,3.87
2022-12-07T13:18:56.028Z,3.81
2022-12-07T13:20:01.359Z,3.73
2022-12-07T13:21:08.310Z,3.71
2022-12-07T13:22:31.164Z,3.71
2022-12-07T13:23:44.531Z,3.71
2022-12-07T13:24:47.229Z,3.73
2022-12-07T13:25:57.546Z,3.73
2022-12-07T13:26:59.185Z,3.71
2022-12-07T13:28:19.691Z,3.70
2022-12-07T13:29:21.763Z,3.69
2022-12-07T13:30:23.643Z,3.70
2022-12-07T13:31:43.448Z,3.71
2022-12-07T13:34:45.254Z,3.68
2022-12-07T13:35:46.934Z,3.66
2022-12-07T13:36:48.453Z,3.65
2022-12-07T13:37:50.015Z,3.64
2022-12-07T13:39:00.096Z,3.68
2022-12-07T13:40:19.252Z,3.62
2022-12-07T13:41:23.127Z,3.61
2022-12-07T13:42:32.730Z,3.61
2022-12-07T13:43:44.302Z,3.61
2022-12-07T13:44:45.840Z,3.55
2022-12-07T13:45:57.768Z,3.52
2022-12-07T13:47:18.481Z,3.59
2022-12-07T13:48:19.972Z,3.55
2022-12-07T13:49:21.379Z,3.49
2022-12-07T13:50:25.529Z,3.50
2022-12-07T13:51:28.971Z,3.48
2022-12-07T13:52:31.834Z,3.45
2022-12-07T13:53:33.377Z,3.51
2022-12-07T13:54:44.936Z,3.46
2022-12-07T13:55:53.880Z,3.41
2022-12-07T13:56:56.108Z,3.37
2022-12-07T13:57:58.038Z,3.34
2022-12-07T13:58:59.659Z,3.27
2022-12-07T14:00:03.839Z,3.27
2022-12-07T14:01:07.222Z,3.28
2022-12-07T14:02:32.402Z,3.28
2022-12-07T14:03:37.196Z,3.28
2022-12-07T14:04:39.190Z,3.27
2022-12-07T14:05:45.459Z,3.30
2022-12-07T14:06:52.267Z,3.28
2022-12-07T14:07:53.801Z,3.28
2022-12-07T14:09:19.103Z,3.32
2022-12-07T14:10:29.882Z,3.29
2022-12-07T14:11:31.463Z,3.30
2022-12-07T14:12:37.540Z,3.26
2022-12-07T14:13:45.145Z,3.31
2022-12-07T14:14:50.362Z,3.30
2022-12-07T14:15:52.736Z,3.27
2022-12-07T14:17:00.224Z,3.24
2022-12-07T14:18:03.974Z,3.20
2022-12-07T14:19:26.510Z,3.11
2022-12-07T14:20:36.519Z,3.15
2022-12-07T14:21:38.027Z,3.13
2022-12-07T14:22:40.103Z,3.11
2022-12-07T14:23:42.329Z,3.09
2022-12-07T14:24:44.370Z,3.12
2022-12-07T14:25:51.919Z,3.09
2022-12-07T14:26:53.496Z,3.12
2022-12-07T14:28:00.381Z,3.15
2022-12-07T14:29:31.772Z,3.12
2022-12-07T14:30:34.817Z,3.09
2022-12-07T14:31:36.414Z,3.05
2022-12-07T14:32:38.722Z,3.02
2022-12-07T14:33:41.289Z,3.04
2022-12-07T14:34:42.798Z,3.05
2022-12-07T14:35:44.328Z,3.02
2022-12-07T14:36:45.831Z,2.99
2022-12-07T14:37:49.543Z,3.01
2022-12-07T14:38:51.071Z,3.02
2022-12-07T14:39:52.573Z,2.98
2022-12-07T14:40:55.034Z,2.98
2022-12-07T14:41:56.533Z,3.01
2022-12-07T14:43:09.754Z,2.94
2022-12-07T14:44:35.479Z,2.95
2022-12-07T14:45:36.274Z,2.97
2022-12-07T14:46:38.124Z,3.02
2022-12-07T14:50:23.472Z,2.90
2022-12-07T14:54:19.515Z,2.84
2022-12-07T14:55:25.365Z,2.90
2022-12-07T14:56:26.865Z,2.86
2022-12-07T14:57:28.373Z,2.84
2022-12-07T14:58:29.873Z,2.85
2022-12-07T14:59:31.425Z,2.87
2022-12-07T15:00:32.985Z,2.87
2022-12-07T15:01:34.714Z,2.88
2022-12-07T15:02:36.233Z,2.88
2022-12-07T15:03:37.802Z,2.84
2022-12-07T15:04:40.122Z,2.84
2022-12-07T15:05:42.363Z,2.91
2022-12-07T15:06:58.898Z,2.95
2022-12-07T15:08:00.596Z,3.02
2022-12-07T15:09:02.809Z,3.03
2022-12-07T15:10:05.187Z,2.98
2022-12-07T15:11:06.749Z,2.94
2022-12-07T15:12:08.263Z,2.95
2022-12-07T15:13:09.908Z,2.96